sensor_id;sensor_type;location;lat;lon;timestamp;P1;durP1;ratioP1;P2;durP2;ratioP2
42006;SDS011;27696;42.704;23.304;2024-01-07T00:02:24;32.70;;;21.73;;
42006;SDS011;27696;42.704;23.304;2024-01-07T00:04:49;35.05;;;20.58;;
42006;SDS011;27696;42.704;23.304;2024-01-07T00:07:15;36.08;;;21.23;;
42006;SDS011;27696;42.704;23.304;2024-01-07T00:09:40;35.33;;;21.00;;
42006;SDS011;27696;42.704;23.304;2024-01-07T00:12:06;34.42;;;21.05;;
42006;SDS011;27696;42.704;23.304;2024-01-07T00:14:31;32.05;;;21.15;;
42006;SDS011;27696;42.704;23.304;2024-01-07T00:16:57;35.35;;;21.52;;
42006;SDS011;27696;42.704;23.304;2024-01-07T00:19:22;30.85;;;19.90;;
42006;SDS011;27696;42.704;23.304;2024-01-07T00:21:48;30.58;;;19.63;;
42006;SDS011;27696;42.704;23.304;2024-01-07T00:24:14;41.00;;;20.02;;
42006;SDS011;27696;42.704;23.304;2024-01-07T00:26:40;33.30;;;19.58;;
42006;SDS011;27696;42.704;23.304;2024-01-07T00:29:05;30.90;;;20.58;;
42006;SDS011;27696;42.704;23.304;2024-01-07T00:31:31;33.17;;;20.92;;
42006;SDS011;27696;42.704;23.304;2024-01-07T00:33:56;32.83;;;21.05;;
42006;SDS011;27696;42.704;23.304;2024-01-07T00:36:22;28.63;;;20.05;;
42006;SDS011;27696;42.704;23.304;2024-01-07T00:38:47;33.10;;;20.30;;
42006;SDS011;27696;42.704;23.304;2024-01-07T00:41:13;33.05;;;19.75;;
42006;SDS011;27696;42.704;23.304;2024-01-07T00:43:38;30.80;;;19.45;;
42006;SDS011;27696;42.704;23.304;2024-01-07T00:46:04;30.60;;;19.83;;
42006;SDS011;27696;42.704;23.304;2024-01-07T00:48:29;28.83;;;19.33;;
42006;SDS011;27696;42.704;23.304;2024-01-07T00:50:55;32.47;;;19.15;;
42006;SDS011;27696;42.704;23.304;2024-01-07T00:53:20;32.47;;;20.27;;
42006;SDS011;27696;42.704;23.304;2024-01-07T00:55:46;30.27;;;21.15;;
42006;SDS011;27696;42.704;23.304;2024-01-07T00:58:11;30.95;;;20.33;;
42006;SDS011;27696;42.704;23.304;2024-01-07T01:00:37;29.77;;;19.48;;
42006;SDS011;27696;42.704;23.304;2024-01-07T01:03:02;30.83;;;18.52;;
42006;SDS011;27696;42.704;23.304;2024-01-07T01:05:28;29.48;;;19.52;;
42006;SDS011;27696;42.704;23.304;2024-01-07T01:07:53;30.73;;;19.67;;
42006;SDS011;27696;42.704;23.304;2024-01-07T01:10:19;30.48;;;20.35;;
42006;SDS011;27696;42.704;23.304;2024-01-07T01:12:45;28.63;;;20.02;;
42006;SDS011;27696;42.704;23.304;2024-01-07T01:15:10;30.52;;;20.85;;
42006;SDS011;27696;42.704;23.304;2024-01-07T01:17:36;34.58;;;20.08;;
42006;SDS011;27696;42.704;23.304;2024-01-07T01:20:01;28.90;;;19.55;;
42006;SDS011;27696;42.704;23.304;2024-01-07T01:22:27;30.40;;;21.38;;
42006;SDS011;27696;42.704;23.304;2024-01-07T01:24:53;34.90;;;22.55;;
42006;SDS011;27696;42.704;23.304;2024-01-07T01:27:18;36.50;;;22.83;;
42006;SDS011;27696;42.704;23.304;2024-01-07T01:29:44;38.25;;;22.13;;
42006;SDS011;27696;42.704;23.304;2024-01-07T01:32:10;34.65;;;23.02;;
42006;SDS011;27696;42.704;23.304;2024-01-07T01:34:35;37.85;;;23.50;;
42006;SDS011;27696;42.704;23.304;2024-01-07T01:37:01;36.47;;;22.92;;
42006;SDS011;27696;42.704;23.304;2024-01-07T01:39:28;39.38;;;24.33;;
42006;SDS011;27696;42.704;23.304;2024-01-07T01:41:54;39.25;;;23.73;;
42006;SDS011;27696;42.704;23.304;2024-01-07T01:44:19;43.65;;;24.48;;
42006;SDS011;27696;42.704;23.304;2024-01-07T01:46:45;40.05;;;24.10;;
42006;SDS011;27696;42.704;23.304;2024-01-07T01:49:12;42.00;;;22.63;;
42006;SDS011;27696;42.704;23.304;2024-01-07T01:51:38;32.92;;;21.90;;
42006;SDS011;27696;42.704;23.304;2024-01-07T01:54:03;35.00;;;22.63;;
42006;SDS011;27696;42.704;23.304;2024-01-07T01:56:29;34.33;;;22.20;;
42006;SDS011;27696;42.704;23.304;2024-01-07T01:58:55;35.53;;;23.00;;
42006;SDS011;27696;42.704;23.304;2024-01-07T02:01:21;42.55;;;23.65;;
42006;SDS011;27696;42.704;23.304;2024-01-07T02:03:48;37.42;;;22.90;;
42006;SDS011;27696;42.704;23.304;2024-01-07T02:06:13;37.65;;;23.52;;
42006;SDS011;27696;42.704;23.304;2024-01-07T02:08:39;39.00;;;24.35;;
42006;SDS011;27696;42.704;23.304;2024-01-07T02:11:17;37.97;;;23.30;;
42006;SDS011;27696;42.704;23.304;2024-01-07T02:13:44;38.80;;;24.35;;
42006;SDS011;27696;42.704;23.304;2024-01-07T02:16:10;36.80;;;23.83;;
42006;SDS011;27696;42.704;23.304;2024-01-07T02:18:35;34.63;;;22.35;;
42006;SDS011;27696;42.704;23.304;2024-01-07T02:21:02;37.20;;;23.33;;
42006;SDS011;27696;42.704;23.304;2024-01-07T02:23:28;35.40;;;22.67;;
42006;SDS011;27696;42.704;23.304;2024-01-07T02:25:53;34.22;;;22.00;;
42006;SDS011;27696;42.704;23.304;2024-01-07T02:28:19;40.17;;;22.73;;
42006;SDS011;27696;42.704;23.304;2024-01-07T02:30:44;31.60;;;22.42;;
42006;SDS011;27696;42.704;23.304;2024-01-07T02:33:09;28.17;;;20.88;;
42006;SDS011;27696;42.704;23.304;2024-01-07T02:35:35;32.40;;;20.90;;
42006;SDS011;27696;42.704;23.304;2024-01-07T02:38:00;28.73;;;17.80;;
42006;SDS011;27696;42.704;23.304;2024-01-07T02:40:26;27.67;;;17.95;;
42006;SDS011;27696;42.704;23.304;2024-01-07T02:42:51;29.02;;;18.15;;
42006;SDS011;27696;42.704;23.304;2024-01-07T02:45:17;28.17;;;17.48;;
42006;SDS011;27696;42.704;23.304;2024-01-07T02:47:42;24.55;;;16.65;;
42006;SDS011;27696;42.704;23.304;2024-01-07T02:50:08;27.67;;;17.55;;
42006;SDS011;27696;42.704;23.304;2024-01-07T02:52:33;26.15;;;17.13;;
42006;SDS011;27696;42.704;23.304;2024-01-07T02:54:59;26.67;;;17.17;;
42006;SDS011;27696;42.704;23.304;2024-01-07T02:57:26;25.35;;;16.88;;
42006;SDS011;27696;42.704;23.304;2024-01-07T02:59:52;27.08;;;16.15;;
42006;SDS011;27696;42.704;23.304;2024-01-07T03:02:17;26.55;;;18.33;;
42006;SDS011;27696;42.704;23.304;2024-01-07T03:04:43;30.13;;;17.60;;
42006;SDS011;27696;42.704;23.304;2024-01-07T03:07:09;27.80;;;16.73;;
42006;SDS011;27696;42.704;23.304;2024-01-07T03:09:34;25.88;;;18.38;;
42006;SDS011;27696;42.704;23.304;2024-01-07T03:12:00;28.35;;;17.58;;
42006;SDS011;27696;42.704;23.304;2024-01-07T03:14:25;30.15;;;18.15;;
42006;SDS011;27696;42.704;23.304;2024-01-07T03:16:51;30.48;;;19.13;;
42006;SDS011;27696;42.704;23.304;2024-01-07T03:19:17;29.17;;;17.92;;
42006;SDS011;27696;42.704;23.304;2024-01-07T03:21:43;24.23;;;17.40;;
42006;SDS011;27696;42.704;23.304;2024-01-07T03:24:08;25.95;;;17.63;;
42006;SDS011;27696;42.704;23.304;2024-01-07T03:26:34;24.98;;;16.90;;
42006;SDS011;27696;42.704;23.304;2024-01-07T03:28:59;30.58;;;16.88;;
42006;SDS011;27696;42.704;23.304;2024-01-07T03:31:26;26.15;;;17.27;;
42006;SDS011;27696;42.704;23.304;2024-01-07T03:33:51;26.40;;;16.77;;
42006;SDS011;27696;42.704;23.304;2024-01-07T03:36:17;27.30;;;16.90;;
42006;SDS011;27696;42.704;23.304;2024-01-07T03:38:42;27.20;;;16.88;;
42006;SDS011;27696;42.704;23.304;2024-01-07T03:41:08;24.30;;;17.20;;
42006;SDS011;27696;42.704;23.304;2024-01-07T03:43:33;19.80;;;13.10;;
42006;SDS011;27696;42.704;23.304;2024-01-07T03:45:59;9.38;;;7.70;;
42006;SDS011;27696;42.704;23.304;2024-01-07T03:48:25;11.00;;;7.18;;
42006;SDS011;27696;42.704;23.304;2024-01-07T03:50:51;11.20;;;7.90;;
42006;SDS011;27696;42.704;23.304;2024-01-07T03:53:16;13.60;;;7.03;;
42006;SDS011;27696;42.704;23.304;2024-01-07T03:55:44;7.32;;;4.85;;
42006;SDS011;27696;42.704;23.304;2024-01-07T03:58:09;9.77;;;4.78;;
42006;SDS011;27696;42.704;23.304;2024-01-07T04:00:35;5.30;;;4.30;;
42006;SDS011;27696;42.704;23.304;2024-01-07T04:03:01;9.43;;;4.82;;
42006;SDS011;27696;42.704;23.304;2024-01-07T04:05:27;6.95;;;4.38;;
42006;SDS011;27696;42.704;23.304;2024-01-07T04:07:54;6.47;;;4.80;;
42006;SDS011;27696;42.704;23.304;2024-01-07T04:10:20;5.72;;;4.25;;
42006;SDS011;27696;42.704;23.304;2024-01-07T04:12:45;5.78;;;3.83;;
42006;SDS011;27696;42.704;23.304;2024-01-07T04:15:11;5.57;;;3.80;;
42006;SDS011;27696;42.704;23.304;2024-01-07T04:17:37;6.35;;;4.22;;
42006;SDS011;27696;42.704;23.304;2024-01-07T04:20:02;6.43;;;4.07;;
42006;SDS011;27696;42.704;23.304;2024-01-07T04:22:28;6.72;;;3.72;;
42006;SDS011;27696;42.704;23.304;2024-01-07T04:24:54;5.80;;;4.13;;
42006;SDS011;27696;42.704;23.304;2024-01-07T04:27:19;7.30;;;4.30;;
42006;SDS011;27696;42.704;23.304;2024-01-07T04:29:45;4.43;;;3.65;;
42006;SDS011;27696;42.704;23.304;2024-01-07T04:32:10;7.03;;;4.10;;
42006;SDS011;27696;42.704;23.304;2024-01-07T04:34:36;6.80;;;3.88;;
42006;SDS011;27696;42.704;23.304;2024-01-07T04:37:01;5.80;;;4.22;;
42006;SDS011;27696;42.704;23.304;2024-01-07T04:39:27;5.80;;;4.60;;
42006;SDS011;27696;42.704;23.304;2024-01-07T04:41:52;8.15;;;4.97;;
42006;SDS011;27696;42.704;23.304;2024-01-07T04:44:17;5.32;;;4.53;;
42006;SDS011;27696;42.704;23.304;2024-01-07T04:46:43;5.47;;;4.15;;
42006;SDS011;27696;42.704;23.304;2024-01-07T04:49:09;5.30;;;4.80;;
42006;SDS011;27696;42.704;23.304;2024-01-07T04:51:34;7.88;;;5.95;;
42006;SDS011;27696;42.704;23.304;2024-01-07T04:54:01;9.93;;;7.30;;
42006;SDS011;27696;42.704;23.304;2024-01-07T04:56:27;12.60;;;8.15;;
42006;SDS011;27696;42.704;23.304;2024-01-07T04:58:52;13.65;;;8.18;;
42006;SDS011;27696;42.704;23.304;2024-01-07T05:01:18;9.25;;;6.88;;
42006;SDS011;27696;42.704;23.304;2024-01-07T05:03:43;10.10;;;7.20;;
42006;SDS011;27696;42.704;23.304;2024-01-07T05:06:09;12.23;;;9.20;;
42006;SDS011;27696;42.704;23.304;2024-01-07T05:08:35;14.13;;;9.27;;
42006;SDS011;27696;42.704;23.304;2024-01-07T05:11:02;13.73;;;9.57;;
42006;SDS011;27696;42.704;23.304;2024-01-07T05:13:28;13.30;;;9.55;;
42006;SDS011;27696;42.704;23.304;2024-01-07T05:15:54;16.05;;;9.73;;
42006;SDS011;27696;42.704;23.304;2024-01-07T05:18:23;16.83;;;10.70;;
42006;SDS011;27696;42.704;23.304;2024-01-07T05:20:49;15.98;;;10.18;;
42006;SDS011;27696;42.704;23.304;2024-01-07T05:23:15;13.93;;;10.70;;
42006;SDS011;27696;42.704;23.304;2024-01-07T05:25:44;17.20;;;10.70;;
42006;SDS011;27696;42.704;23.304;2024-01-07T05:28:13;14.95;;;10.75;;
42006;SDS011;27696;42.704;23.304;2024-01-07T05:30:39;15.50;;;9.73;;
42006;SDS011;27696;42.704;23.304;2024-01-07T05:33:05;16.27;;;10.60;;
42006;SDS011;27696;42.704;23.304;2024-01-07T05:35:30;17.27;;;10.93;;
42006;SDS011;27696;42.704;23.304;2024-01-07T05:37:56;15.45;;;10.68;;
42006;SDS011;27696;42.704;23.304;2024-01-07T05:40:22;19.23;;;10.93;;
42006;SDS011;27696;42.704;23.304;2024-01-07T05:42:47;16.33;;;10.07;;
42006;SDS011;27696;42.704;23.304;2024-01-07T05:45:13;18.42;;;10.48;;
42006;SDS011;27696;42.704;23.304;2024-01-07T05:47:38;15.82;;;11.15;;
42006;SDS011;27696;42.704;23.304;2024-01-07T05:50:05;20.40;;;12.60;;
42006;SDS011;27696;42.704;23.304;2024-01-07T05:52:31;19.77;;;11.63;;
42006;SDS011;27696;42.704;23.304;2024-01-07T05:54:57;16.83;;;10.70;;
42006;SDS011;27696;42.704;23.304;2024-01-07T05:57:22;13.38;;;9.57;;
42006;SDS011;27696;42.704;23.304;2024-01-07T05:59:48;13.45;;;7.45;;
42006;SDS011;27696;42.704;23.304;2024-01-07T06:02:15;14.70;;;7.70;;
42006;SDS011;27696;42.704;23.304;2024-01-07T06:04:41;12.27;;;8.25;;
42006;SDS011;27696;42.704;23.304;2024-01-07T06:07:06;15.13;;;9.70;;
42006;SDS011;27696;42.704;23.304;2024-01-07T06:09:32;16.20;;;9.32;;
42006;SDS011;27696;42.704;23.304;2024-01-07T06:11:58;16.58;;;9.85;;
42006;SDS011;27696;42.704;23.304;2024-01-07T06:14:23;16.42;;;9.55;;
42006;SDS011;27696;42.704;23.304;2024-01-07T06:16:49;15.20;;;10.85;;
42006;SDS011;27696;42.704;23.304;2024-01-07T06:19:18;16.23;;;10.52;;
42006;SDS011;27696;42.704;23.304;2024-01-07T06:21:44;17.17;;;10.23;;
42006;SDS011;27696;42.704;23.304;2024-01-07T06:24:10;15.18;;;10.07;;
42006;SDS011;27696;42.704;23.304;2024-01-07T06:26:37;16.52;;;10.85;;
42006;SDS011;27696;42.704;23.304;2024-01-07T06:29:02;21.25;;;11.57;;
42006;SDS011;27696;42.704;23.304;2024-01-07T06:31:28;15.68;;;11.07;;
42006;SDS011;27696;42.704;23.304;2024-01-07T06:33:53;16.00;;;10.85;;
42006;SDS011;27696;42.704;23.304;2024-01-07T06:36:22;14.57;;;10.70;;
42006;SDS011;27696;42.704;23.304;2024-01-07T06:38:48;17.00;;;12.27;;
42006;SDS011;27696;42.704;23.304;2024-01-07T06:41:14;16.17;;;11.13;;
42006;SDS011;27696;42.704;23.304;2024-01-07T06:43:39;16.05;;;11.55;;
42006;SDS011;27696;42.704;23.304;2024-01-07T06:46:05;20.05;;;13.98;;
42006;SDS011;27696;42.704;23.304;2024-01-07T06:48:30;18.08;;;12.85;;
42006;SDS011;27696;42.704;23.304;2024-01-07T06:50:56;15.98;;;11.93;;
42006;SDS011;27696;42.704;23.304;2024-01-07T06:53:22;19.58;;;12.57;;
42006;SDS011;27696;42.704;23.304;2024-01-07T06:55:48;18.60;;;12.43;;
42006;SDS011;27696;42.704;23.304;2024-01-07T06:58:13;21.73;;;14.88;;
42006;SDS011;27696;42.704;23.304;2024-01-07T07:00:39;24.70;;;15.35;;
42006;SDS011;27696;42.704;23.304;2024-01-07T07:03:04;21.92;;;13.63;;
42006;SDS011;27696;42.704;23.304;2024-01-07T07:05:31;17.17;;;13.13;;
42006;SDS011;27696;42.704;23.304;2024-01-07T07:07:57;17.40;;;13.15;;
42006;SDS011;27696;42.704;23.304;2024-01-07T07:10:22;14.80;;;11.15;;
42006;SDS011;27696;42.704;23.304;2024-01-07T07:12:48;27.25;;;19.83;;
42006;SDS011;27696;42.704;23.304;2024-01-07T07:15:15;15.80;;;10.77;;
42006;SDS011;27696;42.704;23.304;2024-01-07T07:17:41;19.58;;;12.85;;
42006;SDS011;27696;42.704;23.304;2024-01-07T07:20:07;17.70;;;11.48;;
42006;SDS011;27696;42.704;23.304;2024-01-07T07:22:33;16.58;;;11.05;;
42006;SDS011;27696;42.704;23.304;2024-01-07T07:24:58;12.30;;;9.00;;
42006;SDS011;27696;42.704;23.304;2024-01-07T07:27:24;15.05;;;9.80;;
42006;SDS011;27696;42.704;23.304;2024-01-07T07:29:49;16.50;;;10.35;;
42006;SDS011;27696;42.704;23.304;2024-01-07T07:32:15;14.68;;;10.80;;
42006;SDS011;27696;42.704;23.304;2024-01-07T07:34:40;15.23;;;10.90;;
42006;SDS011;27696;42.704;23.304;2024-01-07T07:37:06;15.98;;;11.05;;
42006;SDS011;27696;42.704;23.304;2024-01-07T07:39:31;15.60;;;10.43;;
42006;SDS011;27696;42.704;23.304;2024-01-07T07:41:57;14.88;;;10.18;;
42006;SDS011;27696;42.704;23.304;2024-01-07T07:44:22;15.50;;;10.32;;
42006;SDS011;27696;42.704;23.304;2024-01-07T07:46:48;18.08;;;11.35;;
42006;SDS011;27696;42.704;23.304;2024-01-07T07:49:13;15.57;;;11.23;;
42006;SDS011;27696;42.704;23.304;2024-01-07T07:51:39;14.15;;;10.70;;
42006;SDS011;27696;42.704;23.304;2024-01-07T07:54:04;13.85;;;10.63;;
42006;SDS011;27696;42.704;23.304;2024-01-07T07:56:30;17.25;;;11.40;;
42006;SDS011;27696;42.704;23.304;2024-01-07T07:58:55;20.05;;;11.93;;
42006;SDS011;27696;42.704;23.304;2024-01-07T08:01:21;17.08;;;10.82;;
42006;SDS011;27696;42.704;23.304;2024-01-07T08:03:46;18.10;;;12.05;;
42006;SDS011;27696;42.704;23.304;2024-01-07T08:06:11;15.18;;;10.88;;
42006;SDS011;27696;42.704;23.304;2024-01-07T08:08:37;15.63;;;11.40;;
42006;SDS011;27696;42.704;23.304;2024-01-07T08:11:03;14.05;;;10.73;;
42006;SDS011;27696;42.704;23.304;2024-01-07T08:13:32;16.65;;;11.65;;
42006;SDS011;27696;42.704;23.304;2024-01-07T08:15:57;15.60;;;11.02;;
42006;SDS011;27696;42.704;23.304;2024-01-07T08:18:23;15.63;;;11.35;;
42006;SDS011;27696;42.704;23.304;2024-01-07T08:20:48;18.30;;;12.05;;
42006;SDS011;27696;42.704;23.304;2024-01-07T08:23:15;16.20;;;12.85;;
42006;SDS011;27696;42.704;23.304;2024-01-07T08:25:40;17.10;;;12.68;;
42006;SDS011;27696;42.704;23.304;2024-01-07T08:28:07;15.32;;;11.90;;
42006;SDS011;27696;42.704;23.304;2024-01-07T08:30:32;16.60;;;11.40;;
42006;SDS011;27696;42.704;23.304;2024-01-07T08:32:58;20.67;;;13.48;;
42006;SDS011;27696;42.704;23.304;2024-01-07T08:35:23;17.85;;;12.20;;
42006;SDS011;27696;42.704;23.304;2024-01-07T08:37:49;16.02;;;12.23;;
42006;SDS011;27696;42.704;23.304;2024-01-07T08:40:14;14.90;;;11.65;;
42006;SDS011;27696;42.704;23.304;2024-01-07T08:42:40;15.85;;;12.07;;
42006;SDS011;27696;42.704;23.304;2024-01-07T08:45:06;16.08;;;12.63;;
42006;SDS011;27696;42.704;23.304;2024-01-07T08:47:32;15.82;;;12.77;;
42006;SDS011;27696;42.704;23.304;2024-01-07T08:49:57;19.58;;;12.98;;
42006;SDS011;27696;42.704;23.304;2024-01-07T08:52:23;19.40;;;12.00;;
42006;SDS011;27696;42.704;23.304;2024-01-07T08:54:49;16.00;;;12.07;;
42006;SDS011;27696;42.704;23.304;2024-01-07T08:57:15;14.88;;;11.70;;
42006;SDS011;27696;42.704;23.304;2024-01-07T08:59:40;21.17;;;13.48;;
42006;SDS011;27696;42.704;23.304;2024-01-07T09:02:05;18.00;;;13.15;;
42006;SDS011;27696;42.704;23.304;2024-01-07T09:04:31;19.77;;;13.65;;
42006;SDS011;27696;42.704;23.304;2024-01-07T09:06:58;19.73;;;12.50;;
42006;SDS011;27696;42.704;23.304;2024-01-07T09:09:24;15.45;;;12.10;;
42006;SDS011;27696;42.704;23.304;2024-01-07T09:11:49;17.52;;;12.25;;
42006;SDS011;27696;42.704;23.304;2024-01-07T09:14:15;19.08;;;12.88;;
42006;SDS011;27696;42.704;23.304;2024-01-07T09:16:40;14.90;;;12.82;;
42006;SDS011;27696;42.704;23.304;2024-01-07T09:19:06;16.00;;;12.07;;
42006;SDS011;27696;42.704;23.304;2024-01-07T09:21:31;18.08;;;13.18;;
42006;SDS011;27696;42.704;23.304;2024-01-07T09:23:57;18.05;;;12.57;;
42006;SDS011;27696;42.704;23.304;2024-01-07T09:26:22;16.60;;;13.10;;
42006;SDS011;27696;42.704;23.304;2024-01-07T09:28:48;19.55;;;13.95;;
42006;SDS011;27696;42.704;23.304;2024-01-07T09:31:13;21.08;;;13.70;;
42006;SDS011;27696;42.704;23.304;2024-01-07T09:33:39;21.23;;;14.45;;
42006;SDS011;27696;42.704;23.304;2024-01-07T09:36:04;18.05;;;13.95;;
42006;SDS011;27696;42.704;23.304;2024-01-07T09:38:30;20.67;;;14.20;;
42006;SDS011;27696;42.704;23.304;2024-01-07T09:40:56;19.05;;;14.30;;
42006;SDS011;27696;42.704;23.304;2024-01-07T09:43:21;19.30;;;14.60;;
42006;SDS011;27696;42.704;23.304;2024-01-07T09:45:47;18.73;;;14.80;;
42006;SDS011;27696;42.704;23.304;2024-01-07T09:48:13;16.88;;;13.80;;
42006;SDS011;27696;42.704;23.304;2024-01-07T09:50:39;16.27;;;13.43;;
42006;SDS011;27696;42.704;23.304;2024-01-07T09:53:05;19.10;;;14.20;;
42006;SDS011;27696;42.704;23.304;2024-01-07T09:55:40;14.98;;;12.43;;
42006;SDS011;27696;42.704;23.304;2024-01-07T09:58:09;20.35;;;12.07;;
42006;SDS011;27696;42.704;23.304;2024-01-07T10:00:34;16.35;;;11.70;;
42006;SDS011;27696;42.704;23.304;2024-01-07T10:03:00;15.20;;;11.55;;
42006;SDS011;27696;42.704;23.304;2024-01-07T10:05:28;16.83;;;11.60;;
42006;SDS011;27696;42.704;23.304;2024-01-07T10:07:53;16.63;;;12.00;;
42006;SDS011;27696;42.704;23.304;2024-01-07T10:10:20;15.68;;;10.93;;
42006;SDS011;27696;42.704;23.304;2024-01-07T10:12:46;14.20;;;10.35;;
42006;SDS011;27696;42.704;23.304;2024-01-07T10:15:12;16.77;;;9.48;;
42006;SDS011;27696;42.704;23.304;2024-01-07T10:17:39;13.43;;;9.43;;
42006;SDS011;27696;42.704;23.304;2024-01-07T10:20:07;11.88;;;9.00;;
42006;SDS011;27696;42.704;23.304;2024-01-07T10:22:35;13.82;;;7.78;;
42006;SDS011;27696;42.704;23.304;2024-01-07T10:25:02;11.48;;;8.05;;
42006;SDS011;27696;42.704;23.304;2024-01-07T10:27:27;12.68;;;8.10;;
42006;SDS011;27696;42.704;23.304;2024-01-07T10:29:53;12.85;;;9.23;;
42006;SDS011;27696;42.704;23.304;2024-01-07T10:32:20;11.30;;;7.55;;
42006;SDS011;27696;42.704;23.304;2024-01-07T10:34:46;11.48;;;7.40;;
42006;SDS011;27696;42.704;23.304;2024-01-07T10:37:12;12.32;;;6.28;;
42006;SDS011;27696;42.704;23.304;2024-01-07T10:39:38;10.02;;;6.40;;
42006;SDS011;27696;42.704;23.304;2024-01-07T10:42:06;12.10;;;6.47;;
42006;SDS011;27696;42.704;23.304;2024-01-07T10:44:33;9.15;;;6.40;;
42006;SDS011;27696;42.704;23.304;2024-01-07T10:46:58;10.52;;;6.45;;
42006;SDS011;27696;42.704;23.304;2024-01-07T10:49:28;9.05;;;6.10;;
42006;SDS011;27696;42.704;23.304;2024-01-07T10:54:19;12.13;;;7.75;;
42006;SDS011;27696;42.704;23.304;2024-01-07T10:56:46;11.95;;;8.43;;
42006;SDS011;27696;42.704;23.304;2024-01-07T10:59:14;13.23;;;8.43;;
42006;SDS011;27696;42.704;23.304;2024-01-07T11:01:40;14.88;;;8.68;;
42006;SDS011;27696;42.704;23.304;2024-01-07T11:04:08;11.05;;;8.15;;
42006;SDS011;27696;42.704;23.304;2024-01-07T11:06:51;8.63;;;4.72;;
42006;SDS011;27696;42.704;23.304;2024-01-07T11:09:26;5.90;;;2.83;;
42006;SDS011;27696;42.704;23.304;2024-01-07T11:12:23;6.15;;;4.15;;
42006;SDS011;27696;42.704;23.304;2024-01-07T11:14:49;12.40;;;7.45;;
42006;SDS011;27696;42.704;23.304;2024-01-07T11:20:13;9.30;;;6.33;;
42006;SDS011;27696;42.704;23.304;2024-01-07T11:22:43;10.98;;;6.25;;
42006;SDS011;27696;42.704;23.304;2024-01-07T11:25:42;8.77;;;5.57;;
42006;SDS011;27696;42.704;23.304;2024-01-07T11:28:00;7.05;;;4.90;;
42006;SDS011;27696;42.704;23.304;2024-01-07T11:30:26;7.68;;;5.00;;
42006;SDS011;27696;42.704;23.304;2024-01-07T11:32:58;7.07;;;4.32;;
42006;SDS011;27696;42.704;23.304;2024-01-07T11:38:22;6.07;;;4.63;;
42006;SDS011;27696;42.704;23.304;2024-01-07T11:40:48;6.88;;;4.53;;
42006;SDS011;27696;42.704;23.304;2024-01-07T11:43:14;6.05;;;4.43;;
42006;SDS011;27696;42.704;23.304;2024-01-07T11:45:39;5.82;;;4.28;;
42006;SDS011;27696;42.704;23.304;2024-01-07T11:48:05;8.25;;;3.75;;
42006;SDS011;27696;42.704;23.304;2024-01-07T11:50:31;9.93;;;4.07;;
42006;SDS011;27696;42.704;23.304;2024-01-07T11:52:56;6.78;;;4.28;;
42006;SDS011;27696;42.704;23.304;2024-01-07T11:55:22;8.85;;;4.20;;
42006;SDS011;27696;42.704;23.304;2024-01-07T11:57:47;5.90;;;4.07;;
42006;SDS011;27696;42.704;23.304;2024-01-07T12:00:13;5.22;;;3.90;;
42006;SDS011;27696;42.704;23.304;2024-01-07T12:02:39;6.07;;;4.40;;
42006;SDS011;27696;42.704;23.304;2024-01-07T12:05:04;7.30;;;3.72;;
42006;SDS011;27696;42.704;23.304;2024-01-07T12:07:30;7.65;;;3.75;;
42006;SDS011;27696;42.704;23.304;2024-01-07T12:09:56;7.03;;;4.57;;
42006;SDS011;27696;42.704;23.304;2024-01-07T12:12:23;6.05;;;4.07;;
42006;SDS011;27696;42.704;23.304;2024-01-07T12:14:48;6.43;;;4.10;;
42006;SDS011;27696;42.704;23.304;2024-01-07T12:17:16;7.03;;;4.20;;
42006;SDS011;27696;42.704;23.304;2024-01-07T12:19:43;7.40;;;4.70;;
42006;SDS011;27696;42.704;23.304;2024-01-07T12:22:09;10.18;;;3.97;;
42006;SDS011;27696;42.704;23.304;2024-01-07T12:24:34;8.30;;;4.63;;
42006;SDS011;27696;42.704;23.304;2024-01-07T12:27:04;11.05;;;5.15;;
42006;SDS011;27696;42.704;23.304;2024-01-07T12:29:30;8.63;;;4.68;;
42006;SDS011;27696;42.704;23.304;2024-01-07T12:31:56;9.20;;;5.63;;
42006;SDS011;27696;42.704;23.304;2024-01-07T12:34:21;8.68;;;5.30;;
42006;SDS011;27696;42.704;23.304;2024-01-07T12:36:48;7.97;;;4.30;;
42006;SDS011;27696;42.704;23.304;2024-01-07T12:39:14;10.40;;;5.93;;
42006;SDS011;27696;42.704;23.304;2024-01-07T12:41:40;7.90;;;4.63;;
42006;SDS011;27696;42.704;23.304;2024-01-07T12:44:05;8.35;;;4.80;;
42006;SDS011;27696;42.704;23.304;2024-01-07T12:46:33;12.85;;;5.82;;
42006;SDS011;27696;42.704;23.304;2024-01-07T12:48:59;10.20;;;5.40;;
42006;SDS011;27696;42.704;23.304;2024-01-07T12:51:24;10.45;;;5.55;;
42006;SDS011;27696;42.704;23.304;2024-01-07T12:53:50;11.05;;;5.47;;
42006;SDS011;27696;42.704;23.304;2024-01-07T12:56:16;8.93;;;5.93;;
42006;SDS011;27696;42.704;23.304;2024-01-07T12:58:41;8.38;;;5.70;;
42006;SDS011;27696;42.704;23.304;2024-01-07T13:01:07;8.35;;;5.07;;
42006;SDS011;27696;42.704;23.304;2024-01-07T13:03:32;8.25;;;5.53;;
42006;SDS011;27696;42.704;23.304;2024-01-07T13:05:58;10.38;;;4.82;;
42006;SDS011;27696;42.704;23.304;2024-01-07T13:08:23;10.38;;;5.75;;
42006;SDS011;27696;42.704;23.304;2024-01-07T13:10:51;12.35;;;5.93;;
42006;SDS011;27696;42.704;23.304;2024-01-07T13:13:17;11.60;;;5.60;;
42006;SDS011;27696;42.704;23.304;2024-01-07T13:15:42;7.90;;;5.85;;
42006;SDS011;27696;42.704;23.304;2024-01-07T13:18:08;9.18;;;5.32;;
42006;SDS011;27696;42.704;23.304;2024-01-07T13:20:34;6.85;;;5.20;;
42006;SDS011;27696;42.704;23.304;2024-01-07T13:23:04;11.15;;;5.60;;
42006;SDS011;27696;42.704;23.304;2024-01-07T13:25:31;9.25;;;5.68;;
42006;SDS011;27696;42.704;23.304;2024-01-07T13:27:57;7.88;;;5.20;;
42006;SDS011;27696;42.704;23.304;2024-01-07T13:30:23;8.52;;;5.75;;
42006;SDS011;27696;42.704;23.304;2024-01-07T13:32:48;8.48;;;6.35;;
42006;SDS011;27696;42.704;23.304;2024-01-07T13:35:14;8.15;;;5.75;;
42006;SDS011;27696;42.704;23.304;2024-01-07T13:37:40;12.52;;;5.82;;
42006;SDS011;27696;42.704;23.304;2024-01-07T13:40:09;10.60;;;5.88;;
42006;SDS011;27696;42.704;23.304;2024-01-07T13:42:38;12.23;;;6.13;;
42006;SDS011;27696;42.704;23.304;2024-01-07T13:45:04;11.65;;;6.32;;
42006;SDS011;27696;42.704;23.304;2024-01-07T13:47:30;7.55;;;5.82;;
42006;SDS011;27696;42.704;23.304;2024-01-07T13:49:56;7.20;;;5.78;;
42006;SDS011;27696;42.704;23.304;2024-01-07T13:52:21;10.73;;;5.75;;
42006;SDS011;27696;42.704;23.304;2024-01-07T13:54:47;9.73;;;6.22;;
42006;SDS011;27696;42.704;23.304;2024-01-07T13:57:13;9.63;;;6.45;;
42006;SDS011;27696;42.704;23.304;2024-01-07T13:59:39;9.32;;;6.35;;
42006;SDS011;27696;42.704;23.304;2024-01-07T14:02:06;9.45;;;5.93;;
42006;SDS011;27696;42.704;23.304;2024-01-07T14:04:32;12.18;;;6.80;;
42006;SDS011;27696;42.704;23.304;2024-01-07T14:06:58;10.27;;;6.75;;
42006;SDS011;27696;42.704;23.304;2024-01-07T14:09:23;12.35;;;7.93;;
42006;SDS011;27696;42.704;23.304;2024-01-07T14:11:49;13.88;;;7.03;;
42006;SDS011;27696;42.704;23.304;2024-01-07T14:14:15;12.45;;;6.95;;
42006;SDS011;27696;42.704;23.304;2024-01-07T14:16:41;19.17;;;10.48;;
42006;SDS011;27696;42.704;23.304;2024-01-07T14:19:06;12.00;;;7.20;;